Terminal Aerodrome Forecast
Issued by NWS

Home | Current Version | Previous Version | Text Only | Print | Product List | Glossary On
Versions: 1 2 3 4 5 6 7 8 9 10 11 12 13 14 15 16 17
000
FTUS42 KTAE 201400 AAA
TAFVLD
TAF AMD
KVLD 201407Z 2014/2112 04007KT P6SM BKN010
     FM201600 04008KT P6SM BKN025
      TEMPO 2018/2022 3SM TSRA BKN020CB
     FM202200 04006KT P6SM BKN040=

USA.gov is the U.S. government's official web portal to all federal, state and local government web resources and services.